メインページ
METAR-TAF:

METAR-TAF

空港 :

ポイント・ヴェレ空港

フツナ, フランス

緯度: 14-19S, 経度: 178-07W, 海抜: 6m

METAR: 見つかりません

時間: 01:04 (13:04 UTC)

予報

当レポートは2時間4分前の11:00(UTC)に作成
予報は10日の 12時(UTC)から 11日の 12時(UTC)まで有効
南東の風 6kt
視程10km以上
高度3500ftの雲は散在している
高度5500ftの千切れ雲あり
11日の 06時(UTC)から 11日の 12時(UTC)まで一時的に
視程: 4000m
高度2000ftの雲は散在している, 塔状積雲.
にわか雨
確率 30% :
11日の 06時(UTC)から 11日の 12時(UTC)まで一時的に
視程: 2000m
高度1100ftの千切れ雲あり
高度1800ftの雲は散在している, 積乱雲.
激しい雷雨, 雨

TAF: NLWF 101100Z 1012/1112 14006KT 9999 SCT035 BKN055 TEMPO 1106/1112 4000 SHRA SCT020TCU PROB30 TEMPO 1106/1112 2000 TSRA BKN011 SCT018CB

4,000以上の空港の気象観測と天気予報(METAR報とTAF報)

利用可能な観測所は地図上に黄色い丸と赤い丸で示す。

丸の上にカーソルを重ねると観測所名を参照できる。

次にクリックすると気象観測と天気予報を参照できる。

マップの切り替え:黒色「×」印の緑ボタンをクリックして拡大、「-」印の緑ボタンをクリックして縮小、緑色の三角印をクリックして隣りの地図に切り替え


METAR-TAF: